This is the latest recevied weather packets stored in our database for station/object KG0HG. If no packets are shown the sender has not sent any weather packets the latest 10 day(s).
| Time | Temp. | Humidity | Pressure | Rain* | Wind** | Luminosity | Snow |
|---|---|---|---|---|---|---|---|
| 1778098798 | 14.44° C | 33% | 1018.2 hPa | 0 mm | - | 65 W/m² | - |
| 1778098496 | 15° C | 34% | 1018.5 hPa | 0 mm | - | 79 W/m² | - |
| 1778098187 | 15° C | 33% | 1018.5 hPa | 0 mm | - | 75 W/m² | - |
| 1778097883 | 15° C | 33% | 1018.7 hPa | 0 mm | - | 207 W/m² | - |
| 1778097579 | 14.44° C | 33% | 1018.7 hPa | 0 mm | - | 84 W/m² | - |
| 1778097277 | 15° C | 32% | 1018.6 hPa | 0 mm | - | 74 W/m² | - |
| 1778096973 | 14.44° C | 34% | 1018.6 hPa | 0 mm | - | 198 W/m² | - |
| 1778096671 | 14.44° C | 31% | 1018.8 hPa | 0 mm | - | 710 W/m² | - |
| 1778096367 | 15° C | 33% | 1018.7 hPa | 0 mm | - | 65 W/m² | - |
| 1778096065 | 15° C | 31% | 1018.4 hPa | 0 mm | - | 72 W/m² | - |
| 1778095761 | 13.89° C | 33% | 1018.7 hPa | 0 mm | - | 727 W/m² | - |
| 1778095458 | 14.44° C | 33% | 1018.9 hPa | 0 mm | - | 733 W/m² | - |
| 1778095155 | 13.89° C | 32% | 1019 hPa | 0 mm | - | 739 W/m² | - |
| 1778094851 | 13.89° C | 35% | 1018.9 hPa | 0 mm | - | 734 W/m² | - |
| 1778094548 | 14.44° C | 33% | 1019 hPa | 0 mm | - | 736 W/m² | - |
| 1778094245 | 13.89° C | 35% | 1019 hPa | 0 mm | - | 737 W/m² | - |
| 1778093942 | 13.89° C | 33% | 1018.9 hPa | 0 mm | - | 743 W/m² | - |
| 1778093639 | 13.89° C | 36% | 1019 hPa | 0 mm | - | 740 W/m² | - |
| 1778093336 | 13.33° C | 36% | 1019.1 hPa | 0 mm | - | 640 W/m² | - |
| 1778093033 | 12.78° C | 37% | 1019 hPa | 0 mm | - | 354 W/m² | - |
| 1778092730 | 12.78° C | 35% | 1019.2 hPa | 0 mm | - | 476 W/m² | - |
| 1778092425 | 13.33° C | 36% | 1019.2 hPa | 0 mm | - | 435 W/m² | - |
| 1778092123 | 12.78° C | 35% | 1019.4 hPa | 0 mm | - | 464 W/m² | - |
| 1778091820 | 13.33° C | 39% | 1019.3 hPa | 0 mm | - | 175 W/m² | - |
| 1778091517 | 12.78° C | 39% | 1019.2 hPa | 0 mm | - | 163 W/m² | - |
* Rain latest hour (hover to see other rain measurements)
** Current wind speed in m/s (hover to see current wind gust speed)